Time;durP1;ratioP1;P1;durP2;ratioP2;P2;SDS_P1;SDS_P2;PMS_P1;PMS_P2;Temp;Humidity;BMP_temperature;BMP_pressure;BME280_temperature;BME280_humidity;BME280_pressure;Samples;Min_cycle;Max_cycle;Signal;HPM_P1;HPM_P2
2023/03/31 00:01:47;;;;;;;11.38;5.95;;;;;;;10.22;45.05;99498.03;5095549;28;20068;-80
2023/03/31 00:04:12;;;;;;;11.70;5.60;;;;;;;10.27;45.10;99491.47;5092529;28;20023;-80
2023/03/31 00:06:43;;;;;;;11.52;4.75;;;;;;;10.29;45.47;99497.53;5085514;28;20031;-80
2023/03/31 00:09:17;;;;;;;14.13;5.00;;;;;;;10.17;45.83;99492.66;5111902;28;20574;-80
2023/03/31 00:11:44;;;;;;;4.50;3.50;;;;;;;9.91;46.70;99501.88;5095146;28;20032;-80
2023/03/31 00:14:11;;;;;;;7.18;3.83;;;;;;;9.92;46.51;99492.34;5095007;28;20035;-80
2023/03/31 00:16:37;;;;;;;4.97;4.07;;;;;;;9.79;46.64;99488.56;5094347;28;20027;-80
2023/03/31 00:19:04;;;;;;;6.38;3.53;;;;;;;9.63;45.59;99482.66;5095039;28;20402;-80
2023/03/31 00:21:33;;;;;;;5.40;3.83;;;;;;;9.62;46.05;99481.00;5108681;28;20028;-80
2023/03/31 00:24:01;;;;;;;7.05;4.38;;;;;;;9.96;45.06;99487.72;5094246;28;20405;-80
2023/03/31 00:26:28;;;;;;;6.30;4.25;;;;;;;9.76;45.33;99488.41;5094991;28;20410;-80
2023/03/31 00:28:54;;;;;;;12.00;4.28;;;;;;;9.63;45.61;99476.25;5078214;28;20031;-80
2023/03/31 00:31:21;;;;;;;9.77;4.95;;;;;;;9.40;46.52;99480.00;5091712;28;20028;-80
2023/03/31 00:33:46;;;;;;;10.73;4.28;;;;;;;9.32;47.05;99483.63;5081205;28;20410;-80
2023/03/31 00:36:16;;;;;;;11.73;4.72;;;;;;;9.22;47.04;99490.31;5093931;28;20031;-80
2023/03/31 00:38:45;;;;;;;9.10;6.32;;;;;;;9.22;47.24;99470.78;5088281;28;20027;-80
2023/03/31 00:41:10;;;;;;;12.85;6.22;;;;;;;9.43;47.41;99478.53;5094491;28;20506;-80
2023/03/31 00:43:37;;;;;;;9.98;5.70;;;;;;;9.30;47.53;99474.78;5112063;28;20090;-80
2023/03/31 00:46:18;;;;;;;8.18;4.93;;;;;;;9.12;47.58;99487.88;5092521;28;20039;-80
2023/03/31 00:48:50;;;;;;;10.68;6.40;;;;;;;8.94;48.56;99475.84;5110882;28;20031;-80
2023/03/31 00:51:17;;;;;;;15.70;7.95;;;;;;;8.78;48.49;99472.66;5093586;28;20046;-80
2023/03/31 00:53:47;;;;;;;9.68;6.88;;;;;;;8.59;48.89;99472.94;5093432;28;20100;-80
2023/03/31 00:56:15;;;;;;;10.63;8.43;;;;;;;8.55;49.53;99478.31;5098171;28;20039;-80
2023/03/31 00:58:42;;;;;;;10.50;6.43;;;;;;;8.67;49.08;99461.81;5092194;28;20038;-80
2023/03/31 01:01:13;;;;;;;13.18;6.50;;;;;;;8.70;48.74;99469.50;5112440;28;20023;-80
2023/03/31 01:03:41;;;;;;;10.60;5.93;;;;;;;8.54;48.75;99452.38;5079667;28;20433;-80
2023/03/31 01:06:09;;;;;;;14.27;7.13;;;;;;;8.79;47.79;99472.31;5092289;28;20543;-80
2023/03/31 01:08:37;;;;;;;13.07;7.97;;;;;;;8.84;48.77;99466.63;5093970;28;20122;-80
2023/03/31 01:11:06;;;;;;;17.40;8.88;;;;;;;8.75;48.64;99459.34;5092347;28;20470;-80
2023/03/31 01:13:32;;;;;;;21.58;10.27;;;;;;;8.74;48.88;99455.75;5110851;28;20032;-80
2023/03/31 01:15:57;;;;;;;20.25;9.68;;;;;;;8.63;49.65;99460.81;5093733;28;20038;-80
2023/03/31 01:18:23;;;;;;;21.70;10.93;;;;;;;8.50;50.07;99456.09;5093858;28;20036;-80
2023/03/31 01:20:48;;;;;;;23.20;12.68;;;;;;;8.71;50.54;99450.84;5111245;28;20049;-80
2023/03/31 01:23:50;;;;;;;24.00;13.95;;;;;;;8.69;50.14;99441.97;5091095;28;20032;-80
2023/03/31 01:26:55;;;;;;;24.08;14.20;;;;;;;8.52;50.72;99442.72;5093601;28;20028;-80
2023/03/31 01:29:42;;;;;;;19.15;11.05;;;;;;;8.36;51.95;99450.66;5093890;28;20031;-81
2023/03/31 01:32:32;;;;;;;21.20;9.43;;;;;;;8.32;51.37;99449.63;5092695;28;20046;-80
2023/03/31 01:35:06;;;;;;;16.10;9.68;;;;;;;8.29;51.56;99439.97;5092090;28;20035;-80
2023/03/31 01:37:44;;;;;;;17.85;9.95;;;;;;;8.09;51.78;99441.34;5093591;28;20036;-80
2023/03/31 01:40:21;;;;;;;15.30;9.57;;;;;;;8.08;50.62;99439.69;5093647;28;20074;-80
2023/03/31 01:42:53;;;;;;;14.82;8.95;;;;;;;7.87;50.97;99445.78;5093739;28;20028;-80
2023/03/31 01:45:35;;;;;;;13.80;8.55;;;;;;;7.90;50.84;99442.38;5092344;28;20031;-80
2023/03/31 01:48:17;;;;;;;15.65;8.50;;;;;;;7.94;50.60;99442.56;5110280;28;20034;-80
2023/03/31 01:50:54;;;;;;;14.10;8.73;;;;;;;7.87;50.00;99440.22;5092728;28;20558;-80
2023/03/31 01:53:40;;;;;;;14.30;9.77;;;;;;;7.75;51.09;99426.06;5092644;28;20031;-80
2023/03/31 01:56:18;;;;;;;16.55;7.95;;;;;;;7.65;51.77;99429.91;5093239;28;20038;-80
2023/03/31 01:58:57;;;;;;;13.82;8.10;;;;;;;7.69;50.77;99426.16;5092608;28;20035;-80
2023/03/31 02:01:38;;;;;;;12.63;8.50;;;;;;;7.77;51.55;99418.19;5092454;28;20504;-80
2023/03/31 02:04:32;;;;;;;14.82;8.85;;;;;;;7.59;51.92;99427.25;5094016;28;20168;-80
2023/03/31 02:07:03;;;;;;;15.30;9.02;;;;;;;7.72;50.88;99422.78;5087104;28;20036;-80
2023/03/31 02:09:36;;;;;;;12.98;8.32;;;;;;;7.61;51.48;99421.38;5093554;28;20027;-80
2023/03/31 02:12:06;;;;;;;12.73;8.98;;;;;;;7.58;51.25;99416.44;5093316;28;20473;-80
2023/03/31 02:14:35;;;;;;;15.27;8.55;;;;;;;7.68;50.93;99416.19;5093116;28;20040;-80
2023/03/31 02:17:01;;;;;;;13.32;9.13;;;;;;;7.89;50.23;99420.41;5092104;28;20088;-80
2023/03/31 02:19:32;;;;;;;19.55;9.57;;;;;;;7.84;51.20;99421.34;5091994;28;20023;-80
2023/03/31 02:22:00;;;;;;;16.73;8.90;;;;;;;7.78;50.59;99417.88;5093327;28;20102;-80
2023/03/31 02:24:27;;;;;;;15.00;8.73;;;;;;;7.87;50.15;99423.53;5093008;28;20497;-80
2023/03/31 02:27:26;;;;;;;20.38;9.23;;;;;;;7.85;50.01;99417.44;5088779;28;20034;-80
2023/03/31 02:29:54;;;;;;;16.65;9.65;;;;;;;7.39;50.43;99420.22;5084030;28;20047;-80
2023/03/31 02:32:34;;;;;;;13.35;8.25;;;;;;;7.21;51.60;99418.41;5111246;28;20043;-80
2023/03/31 02:35:00;;;;;;;19.13;9.50;;;;;;;7.13;52.31;99422.78;5093213;28;20055;-80
2023/03/31 02:37:28;;;;;;;21.05;10.10;;;;;;;7.25;52.38;99436.16;5092742;28;20111;-80
2023/03/31 02:39:56;;;;;;;12.88;10.05;;;;;;;7.06;52.35;99428.75;5093119;28;20038;-80
2023/03/31 02:42:22;;;;;;;15.68;9.95;;;;;;;7.20;52.32;99433.47;5109137;28;20040;-80
2023/03/31 02:44:48;;;;;;;19.10;11.07;;;;;;;6.90;53.15;99419.94;5092451;28;20490;-80
2023/03/31 02:47:17;;;;;;;21.52;10.45;;;;;;;6.90;53.86;99430.25;5096727;28;20019;-80
2023/03/31 02:49:51;;;;;;;19.27;11.50;;;;;;;6.96;53.56;99427.03;5096808;28;20019;-80
2023/03/31 02:52:32;;;;;;;18.42;11.60;;;;;;;6.88;53.94;99439.72;5095665;28;20023;-80
2023/03/31 02:55:03;;;;;;;18.83;11.90;;;;;;;6.64;54.76;99450.25;5099163;28;20028;-80
2023/03/31 02:57:40;;;;;;;22.33;12.60;;;;;;;6.53;55.20;99444.06;5113968;28;20035;-81
2023/03/31 03:00:27;;;;;;;18.50;11.40;;;;;;;6.25;55.98;99442.06;5096969;28;20409;-80
2023/03/31 03:03:05;;;;;;;15.95;10.48;;;;;;;6.20;56.44;99447.75;5096532;28;20114;-80
2023/03/31 03:05:57;;;;;;;18.42;10.18;;;;;;;6.17;56.83;99449.16;5095367;28;20118;-80
2023/03/31 03:08:41;;;;;;;17.55;8.93;;;;;;;6.02;56.45;99447.47;5114692;28;20023;-80
2023/03/31 03:11:26;;;;;;;17.08;8.38;;;;;;;5.84;56.92;99457.47;5095641;28;20031;-80
2023/03/31 03:14:22;;;;;;;16.10;8.38;;;;;;;5.95;56.35;99448.97;5096272;28;20027;-81
2023/03/31 03:16:56;;;;;;;10.13;7.03;;;;;;;6.00;56.69;99446.94;5095984;28;20286;-80
2023/03/31 03:19:22;;;;;;;14.90;7.95;;;;;;;6.01;56.92;99458.88;5096425;28;20023;-80
2023/03/31 03:21:48;;;;;;;11.82;7.63;;;;;;;6.09;56.79;99457.38;5093259;28;20085;-81
2023/03/31 03:24:17;;;;;;;17.50;9.27;;;;;;;6.20;57.03;99439.41;5096003;28;20023;-80
2023/03/31 03:26:46;;;;;;;10.25;7.88;;;;;;;6.22;57.27;99459.38;5112728;28;20536;-80
2023/03/31 03:29:13;;;;;;;16.70;9.75;;;;;;;6.22;57.18;99462.13;5098020;28;20408;-81
2023/03/31 03:31:39;;;;;;;18.58;11.40;;;;;;;6.20;57.60;99467.19;5113375;28;20016;-80
2023/03/31 03:34:05;;;;;;;23.60;11.32;;;;;;;6.18;58.04;99461.13;5095939;28;20025;-80
2023/03/31 03:36:31;;;;;;;19.10;10.25;;;;;;;6.05;58.53;99462.72;5095119;28;20034;-80
2023/03/31 03:38:57;;;;;;;14.93;9.05;;;;;;;6.20;58.50;99469.13;5096314;28;20020;-80
2023/03/31 03:41:22;;;;;;;18.35;10.43;;;;;;;6.06;57.92;99463.56;5095730;28;20048;-80
2023/03/31 03:43:48;;;;;;;20.60;12.63;;;;;;;6.08;58.54;99466.84;5113167;28;20152;-80
2023/03/31 03:46:13;;;;;;;21.80;12.30;;;;;;;6.12;59.09;99462.31;5114080;28;20417;-80
2023/03/31 03:48:39;;;;;;;24.38;11.23;;;;;;;6.20;59.00;99458.84;5095786;28;20031;-80
2023/03/31 03:51:05;;;;;;;13.02;9.30;;;;;;;6.22;59.58;99456.59;5112458;28;20020;-80
2023/03/31 03:53:31;;;;;;;13.18;9.57;;;;;;;6.41;59.50;99458.47;5111306;28;20030;-80
2023/03/31 03:55:58;;;;;;;16.55;10.35;;;;;;;6.26;60.05;99454.84;5094515;28;20122;-80
2023/03/31 03:58:24;;;;;;;23.98;9.63;;;;;;;6.37;60.00;99449.09;5093809;28;20062;-80
2023/03/31 04:00:49;;;;;;;25.80;12.55;;;;;;;6.38;59.97;99453.50;5102791;28;20511;-80
2023/03/31 04:03:15;;;;;;;25.55;12.32;;;;;;;6.41;59.78;99453.72;5112474;28;20024;-80
2023/03/31 04:05:41;;;;;;;14.52;8.60;;;;;;;6.15;60.18;99456.16;5100340;28;20053;-80
2023/03/31 04:08:07;;;;;;;23.33;10.10;;;;;;;6.23;59.89;99449.09;5095677;28;20027;-80
2023/03/31 04:10:34;;;;;;;21.35;10.23;;;;;;;6.33;59.58;99446.09;5114096;28;20024;-80
2023/03/31 04:12:59;;;;;;;19.33;11.32;;;;;;;6.41;59.45;99448.16;5094869;28;20023;-79
2023/03/31 04:15:25;;;;;;;21.02;12.30;;;;;;;6.55;59.31;99434.28;5087429;28;20387;-80
2023/03/31 04:17:53;;;;;;;26.75;12.73;;;;;;;6.53;59.34;99428.22;5113240;28;20034;-80
2023/03/31 04:20:19;;;;;;;14.77;9.48;;;;;;;6.63;58.29;99429.97;5116988;28;20035;-80
2023/03/31 04:22:49;;;;;;;22.23;9.60;;;;;;;6.77;59.11;99427.19;5102143;28;20541;-81
2023/03/31 04:25:15;;;;;;;22.55;12.93;;;;;;;6.91;58.49;99421.56;5102092;28;20038;-80
2023/03/31 04:27:53;;;;;;;19.13;10.35;;;;;;;7.05;58.13;99429.91;5099952;28;20490;-80
2023/03/31 04:30:23;;;;;;;15.55;8.90;;;;;;;7.11;58.14;99431.41;5098147;28;20035;-80
2023/03/31 04:32:54;;;;;;;19.90;9.43;;;;;;;7.14;57.43;99421.63;5099463;28;20562;-80
2023/03/31 04:35:26;;;;;;;21.50;9.75;;;;;;;7.00;58.22;99427.25;5099184;28;20100;-79
2023/03/31 04:38:01;;;;;;;18.27;9.95;;;;;;;6.97;58.36;99434.25;5094758;28;20019;-80
2023/03/31 04:40:27;;;;;;;21.05;10.70;;;;;;;6.84;58.73;99433.13;5094627;28;20057;-80
2023/03/31 04:42:52;;;;;;;21.08;11.07;;;;;;;6.96;58.83;99423.44;5094594;28;20478;-80
2023/03/31 04:45:18;;;;;;;19.60;9.95;;;;;;;6.97;58.27;99423.13;5094577;28;20015;-80
2023/03/31 04:47:43;;;;;;;17.13;10.07;;;;;;;7.12;57.53;99427.53;5094400;28;20417;-80
2023/03/31 04:50:09;;;;;;;17.55;10.13;;;;;;;7.10;57.47;99410.31;5092058;28;20102;-80
2023/03/31 04:52:35;;;;;;;26.88;13.40;;;;;;;7.19;56.89;99407.63;5111720;28;20498;-80
2023/03/31 04:55:01;;;;;;;23.27;13.85;;;;;;;7.16;56.84;99409.06;5112446;28;20081;-80
2023/03/31 04:57:26;;;;;;;17.50;11.68;;;;;;;7.19;56.38;99401.22;5093484;28;20019;-80
2023/03/31 04:59:52;;;;;;;19.80;10.93;;;;;;;7.20;55.52;99402.88;5093648;28;20471;-80
2023/03/31 05:02:22;;;;;;;18.13;11.05;;;;;;;7.22;55.73;99387.50;5093431;28;20028;-81
2023/03/31 05:04:49;;;;;;;27.60;10.60;;;;;;;7.35;55.96;99388.59;5111773;28;20050;-81
2023/03/31 05:07:16;;;;;;;22.20;13.02;;;;;;;7.43;54.95;99384.25;5093094;28;20512;-80
2023/03/31 05:09:42;;;;;;;29.45;13.93;;;;;;;7.41;54.61;99379.00;5111271;28;20219;-80
2023/03/31 05:12:07;;;;;;;36.83;13.23;;;;;;;7.20;55.54;99359.19;5094001;28;20015;-80
2023/03/31 05:14:33;;;;;;;48.78;20.95;;;;;;;7.34;55.29;99366.66;5093712;28;20406;-80
2023/03/31 05:16:58;;;;;;;54.75;29.88;;;;;;;7.60;54.55;99391.88;5093702;28;20073;-80
2023/03/31 05:19:24;;;;;;;283.92;165.68;;;;;;;7.64;55.79;99389.28;5093881;28;20027;-80
2023/03/31 05:21:49;;;;;;;47.67;27.13;;;;;;;7.65;55.72;99377.84;5090778;28;20026;-80
2023/03/31 05:24:16;;;;;;;26.80;15.65;;;;;;;7.68;55.85;99370.81;5101360;28;20339;-80
2023/03/31 05:26:46;;;;;;;21.73;14.13;;;;;;;7.66;55.64;99368.34;5083375;28;20023;-81
2023/03/31 05:29:12;;;;;;;29.38;15.80;;;;;;;7.64;56.06;99359.50;5089047;28;20034;-80
2023/03/31 05:31:37;;;;;;;34.35;19.92;;;;;;;7.87;55.31;99357.47;5088648;28;20032;-80
2023/03/31 05:34:03;;;;;;;33.20;21.83;;;;;;;7.83;55.49;99361.22;5087783;28;20027;-80
2023/03/31 05:36:28;;;;;;;25.08;14.85;;;;;;;7.95;55.07;99355.88;5091189;28;20043;-80
2023/03/31 05:38:54;;;;;;;36.67;15.43;;;;;;;7.90;54.65;99339.31;5104818;28;20032;-80
2023/03/31 05:41:19;;;;;;;30.23;13.20;;;;;;;8.11;54.87;99347.13;5108055;28;20051;-81
2023/03/31 05:43:45;;;;;;;25.83;13.07;;;;;;;8.02;54.43;99355.41;5086764;28;20035;-80
2023/03/31 05:46:10;;;;;;;35.63;14.82;;;;;;;8.02;54.65;99349.84;5084341;28;20043;-80
2023/03/31 05:48:36;;;;;;;45.15;18.45;;;;;;;8.05;55.29;99354.81;5102101;28;20080;-81
2023/03/31 05:51:02;;;;;;;53.03;20.48;;;;;;;8.14;55.48;99344.53;5087835;28;20514;-80
2023/03/31 05:53:28;;;;;;;36.65;15.20;;;;;;;8.18;55.60;99349.44;5083961;28;20031;-80
2023/03/31 05:56:01;;;;;;;22.85;13.65;;;;;;;7.99;54.89;99337.41;5089664;28;20578;-80
2023/03/31 05:58:27;;;;;;;30.13;14.18;;;;;;;7.86;55.51;99322.44;5092153;28;20478;-79
2023/03/31 06:01:01;;;;;;;36.90;15.35;;;;;;;8.05;55.07;99340.88;5090551;28;20039;-80
2023/03/31 06:03:26;;;;;;;50.70;20.33;;;;;;;8.14;55.00;99340.91;5089645;28;20081;-80
2023/03/31 06:05:54;;;;;;;68.95;25.77;;;;;;;8.18;54.36;99344.69;5091914;28;20031;-81
2023/03/31 06:08:20;;;;;;;49.90;20.92;;;;;;;8.21;54.23;99341.25;5089780;28;20063;-80
2023/03/31 06:10:45;;;;;;;45.72;25.73;;;;;;;8.13;54.06;99344.84;5090892;28;20110;-81
2023/03/31 06:13:10;;;;;;;35.28;20.98;;;;;;;7.94;55.60;99348.66;5104635;28;20084;-80
2023/03/31 06:15:36;;;;;;;42.40;18.15;;;;;;;7.84;56.39;99330.28;5090732;28;20126;-80
2023/03/31 06:18:02;;;;;;;41.30;21.77;;;;;;;7.96;56.54;99332.47;5091992;28;20038;-80
2023/03/31 06:20:27;;;;;;;48.90;23.55;;;;;;;8.09;56.67;99324.34;5089719;28;20066;-80
2023/03/31 06:22:53;;;;;;;53.63;23.55;;;;;;;8.27;55.61;99328.81;5088392;27;20023;-80
2023/03/31 06:25:18;;;;;;;67.00;26.05;;;;;;;8.32;56.60;99327.84;5092201;28;20525;-81
2023/03/31 06:27:44;;;;;;;74.60;31.65;;;;;;;8.51;55.88;99322.03;5094990;28;20417;-80
2023/03/31 06:30:10;;;;;;;69.40;34.60;;;;;;;8.63;55.80;99317.78;5094064;28;20718;-81
2023/03/31 06:32:35;;;;;;;113.18;41.22;;;;;;;8.70;55.13;99318.13;5094534;28;20024;-80
2023/03/31 06:35:01;;;;;;;91.47;31.23;;;;;;;8.84;55.13;99310.44;5091165;28;20039;-81
2023/03/31 06:37:26;;;;;;;55.70;21.58;;;;;;;8.92;54.31;99302.38;5093150;28;20567;-81
2023/03/31 06:39:52;;;;;;;58.70;29.77;;;;;;;8.96;54.61;99298.59;5093255;28;20032;-81
2023/03/31 06:42:17;;;;;;;26.52;17.83;;;;;;;9.10;54.35;99309.59;5095667;28;20034;-81
2023/03/31 06:44:42;;;;;;;44.67;24.52;;;;;;;9.23;54.20;99305.00;5094990;28;20035;-80
2023/03/31 06:47:08;;;;;;;39.78;19.00;;;;;;;9.29;54.34;99307.63;5093466;28;20031;-82
2023/03/31 06:49:34;;;;;;;39.45;15.88;;;;;;;9.23;56.10;99316.16;5094425;28;20110;-82
2023/03/31 06:52:00;;;;;;;19.27;10.38;;;;;;;9.37;55.64;99307.59;5095183;28;20027;-82
2023/03/31 06:54:25;;;;;;;22.48;11.10;;;;;;;9.47;55.05;99302.81;5091588;28;20028;-81
2023/03/31 06:56:51;;;;;;;41.65;18.10;;;;;;;9.60;53.26;99301.81;5094795;28;20498;-82
2023/03/31 06:59:16;;;;;;;29.88;16.05;;;;;;;9.79;53.43;99309.00;5096054;28;20028;-82
2023/03/31 07:01:41;;;;;;;18.50;7.35;;;;;;;9.93;52.72;99308.75;5094933;28;20032;-82
2023/03/31 07:04:07;;;;;;;16.33;7.57;;;;;;;10.12;51.01;99305.53;5095226;28;20562;-82
2023/03/31 07:06:33;;;;;;;12.95;8.13;;;;;;;10.28;50.21;99296.63;5094960;28;20027;-82
2023/03/31 07:08:59;;;;;;;19.70;9.68;;;;;;;10.37;51.16;99294.56;5113181;28;20028;-82
2023/03/31 07:11:24;;;;;;;27.70;12.20;;;;;;;10.62;51.43;99286.41;5094790;28;20053;-82
2023/03/31 07:13:50;;;;;;;28.52;12.93;;;;;;;11.03;50.95;99281.94;5094520;28;20066;-82
2023/03/31 07:16:15;;;;;;;28.23;13.70;;;;;;;11.46;49.66;99287.47;5094560;28;20115;-82
2023/03/31 07:18:41;;;;;;;38.17;17.60;;;;;;;11.73;48.78;99288.81;5096904;28;20435;-81
2023/03/31 07:21:07;;;;;;;41.75;25.05;;;;;;;11.85;47.59;99290.84;5095456;28;20049;-81
2023/03/31 07:23:34;;;;;;;53.67;27.85;;;;;;;12.10;47.97;99290.88;5096058;28;20493;-81
2023/03/31 07:26:01;;;;;;;50.17;28.98;;;;;;;12.49;47.86;99288.53;5094302;28;20456;-81
2023/03/31 07:28:28;;;;;;;19.50;11.23;;;;;;;12.78;46.35;99283.78;5094547;28;20031;-81
2023/03/31 07:30:53;;;;;;;24.25;12.23;;;;;;;12.97;44.59;99282.34;5094846;28;20039;-81
2023/03/31 07:33:19;;;;;;;25.95;13.10;;;;;;;13.26;45.10;99287.97;5093365;28;20020;-82
2023/03/31 07:35:44;;;;;;;24.95;11.13;;;;;;;13.35;44.59;99294.25;5095607;28;20019;-81
2023/03/31 07:38:11;;;;;;;17.10;9.15;;;;;;;13.52;43.94;99292.31;5095107;28;20027;-82
2023/03/31 07:40:37;;;;;;;12.77;7.80;;;;;;;13.71;43.29;99286.00;5094238;28;20071;-82
2023/03/31 07:43:04;;;;;;;11.95;6.38;;;;;;;13.87;42.10;99283.22;5094280;28;20026;-82
2023/03/31 07:45:29;;;;;;;8.73;4.90;;;;;;;14.06;42.42;99285.31;5095312;28;20032;-82
2023/03/31 07:47:55;;;;;;;8.45;5.97;;;;;;;14.42;42.12;99274.91;5095157;28;20458;-82
2023/03/31 07:50:22;;;;;;;11.38;4.82;;;;;;;14.18;41.67;99276.75;5095642;28;20031;-83
2023/03/31 07:52:48;;;;;;;10.10;5.50;;;;;;;14.12;42.39;99266.16;5094698;28;20036;-82
2023/03/31 07:55:15;;;;;;;9.02;4.32;;;;;;;14.36;42.18;99261.50;5096151;28;20032;-81
2023/03/31 07:57:41;;;;;;;16.73;4.85;;;;;;;14.73;42.15;99270.44;5091621;28;20031;-81
2023/03/31 08:00:11;;;;;;;7.00;4.78;;;;;;;14.31;42.00;99265.41;5113501;28;20111;-81
2023/03/31 08:02:37;;;;;;;9.18;4.80;;;;;;;14.28;42.46;99266.16;5113303;28;20110;-81
2023/03/31 08:05:06;;;;;;;14.45;7.22;;;;;;;14.37;42.87;99255.53;5095271;28;20411;-82
2023/03/31 08:07:36;;;;;;;15.82;6.47;;;;;;;14.39;43.67;99258.78;5103174;28;20028;-81
2023/03/31 08:10:06;;;;;;;9.50;4.45;;;;;;;14.78;43.05;99227.09;5090658;28;20059;-82
2023/03/31 08:12:32;;;;;;;10.93;5.88;;;;;;;14.71;43.07;99222.06;5104286;28;20032;-81
2023/03/31 08:14:57;;;;;;;7.95;5.72;;;;;;;14.92;43.40;99222.97;5093676;28;20076;-81
2023/03/31 08:17:23;;;;;;;10.23;6.18;;;;;;;15.22;42.59;99214.69;5090289;28;20456;-82
2023/03/31 08:19:50;;;;;;;9.52;5.18;;;;;;;15.51;41.93;99201.13;5087734;28;20511;-83
2023/03/31 08:22:15;;;;;;;9.27;5.65;;;;;;;15.69;40.98;99206.28;5090916;28;20020;-84
2023/03/31 08:24:41;;;;;;;10.80;5.10;;;;;;;15.79;41.08;99208.44;5093694;28;20081;-81
2023/03/31 08:27:06;;;;;;;13.73;7.13;;;;;;;16.07;40.59;99200.88;5092480;28;20020;-82
2023/03/31 08:29:32;;;;;;;10.75;5.80;;;;;;;16.37;40.26;99200.13;5094357;28;20458;-80
2023/03/31 08:31:58;;;;;;;8.13;5.95;;;;;;;16.52;39.79;99206.75;5097456;28;20023;-81
2023/03/31 08:34:23;;;;;;;11.50;6.25;;;;;;;16.70;39.12;99178.75;5110292;28;20016;-82
2023/03/31 08:36:49;;;;;;;10.43;5.95;;;;;;;16.93;38.63;99189.97;5088675;28;20058;-82
2023/03/31 08:39:14;;;;;;;10.05;5.43;;;;;;;17.03;38.98;99176.38;5093795;28;20030;-84
2023/03/31 08:41:41;;;;;;;12.85;4.60;;;;;;;17.20;38.05;99186.25;5088743;28;20040;-82
2023/03/31 08:44:14;;;;;;;11.05;5.32;;;;;;;17.24;37.79;99167.31;5078372;28;20038;-81
2023/03/31 08:46:41;;;;;;;11.73;4.97;;;;;;;17.39;37.69;99173.94;5093551;28;20070;-82
2023/03/31 08:49:13;;;;;;;6.65;4.80;;;;;;;17.42;37.44;99166.66;5111779;28;20027;-83
2023/03/31 08:51:48;;;;;;;10.18;6.35;;;;;;;17.58;38.00;99157.94;5089838;28;20466;-82
2023/03/31 08:54:17;;;;;;;26.58;11.75;;;;;;;17.45;38.31;99157.44;5093757;28;20028;-84
2023/03/31 08:56:47;;;;;;;12.30;8.83;;;;;;;17.88;37.38;99143.63;5093281;28;20122;-82
2023/03/31 08:59:34;;;;;;;13.80;7.07;;;;;;;18.21;36.67;99149.53;5092689;27;20027;-80
2023/03/31 09:02:18;;;;;;;13.70;6.47;;;;;;;18.24;35.65;99137.44;5090940;28;20052;-81
2023/03/31 09:05:05;;;;;;;7.10;4.40;;;;;;;18.27;35.11;99125.31;5093549;28;20054;-83
2023/03/31 09:07:40;;;;;;;15.45;4.78;;;;;;;18.46;36.80;99123.38;5088372;28;20106;-83
2023/03/31 09:10:11;;;;;;;17.52;5.43;;;;;;;18.71;35.78;99123.47;5083723;28;20077;-82
2023/03/31 09:12:50;;;;;;;10.07;4.22;;;;;;;18.91;34.63;99115.44;5093661;28;20034;-83
2023/03/31 09:15:25;;;;;;;5.33;3.63;;;;;;;18.88;33.95;99109.75;5094001;28;20413;-84
2023/03/31 09:17:54;;;;;;;13.43;5.85;;;;;;;18.83;34.67;99099.66;5091442;28;20106;-82
2023/03/31 09:20:28;;;;;;;8.65;4.07;;;;;;;18.87;34.49;99105.31;5108512;28;20084;-83
2023/03/31 09:23:17;;;;;;;15.35;4.68;;;;;;;18.93;34.38;99093.19;5089383;28;20318;-83
2023/03/31 09:25:43;;;;;;;14.10;5.10;;;;;;;19.03;34.22;99085.16;5085273;28;20106;-83
2023/03/31 09:28:29;;;;;;;13.93;9.05;;;;;;;18.90;34.43;99071.31;5110023;28;20023;-83
2023/03/31 09:30:55;;;;;;;28.30;10.68;;;;;;;19.08;34.23;99079.09;5092346;28;20030;-84
2023/03/31 09:33:32;;;;;;;13.25;6.93;;;;;;;18.88;34.72;99072.94;5092077;28;20397;-83
2023/03/31 09:36:01;;;;;;;6.63;3.50;;;;;;;18.96;34.18;99071.75;5111166;28;20019;-84
2023/03/31 09:38:28;;;;;;;7.57;3.88;;;;;;;19.19;34.05;99067.75;5092866;28;20023;-84
2023/03/31 09:40:59;;;;;;;15.07;8.80;;;;;;;19.39;33.19;99062.50;5092725;28;20513;-82
2023/03/31 09:43:30;;;;;;;9.57;4.45;;;;;;;19.44;34.58;99064.13;5104535;28;20031;-82
2023/03/31 09:45:58;;;;;;;7.47;4.03;;;;;;;19.75;33.32;99061.66;5090270;28;20494;-83
2023/03/31 09:48:32;;;;;;;6.28;3.88;;;;;;;20.06;34.29;99054.31;5091607;28;20035;-83
2023/03/31 09:51:02;;;;;;;16.77;5.15;;;;;;;19.96;33.11;99048.66;5087246;28;20480;-83
2023/03/31 09:53:47;;;;;;;11.57;5.03;;;;;;;19.95;32.89;99033.69;5087746;28;20024;-83
2023/03/31 09:56:47;;;;;;;7.07;4.65;;;;;;;19.67;33.18;99031.69;5102763;28;20031;-84
2023/03/31 09:59:17;;;;;;;;;;;;;;;20.12;32.98;99034.03;5093538;28;20023;-83
2023/03/31 10:01:46;;;;;;;7.82;4.25;;;;;;;20.23;32.92;99022.63;5110157;28;19926;-83
2023/03/31 10:04:44;;;;;;;13.70;7.30;;;;;;;20.27;32.69;99027.09;5092440;28;20034;-83
2023/03/31 10:07:10;;;;;;;13.50;5.35;;;;;;;20.21;32.51;99020.19;5080277;28;20055;-82
2023/03/31 10:09:37;;;;;;;7.47;4.97;;;;;;;20.48;32.59;99016.81;5092761;28;20051;-82
2023/03/31 10:12:14;;;;;;;9.25;6.22;;;;;;;20.05;32.42;99024.31;5110113;28;20067;-82
2023/03/31 10:14:44;;;;;;;8.32;5.40;;;;;;;20.57;32.68;99020.03;5084277;28;20020;-82
2023/03/31 10:17:14;;;;;;;5.88;5.00;;;;;;;20.85;31.48;99001.19;5083778;28;20355;-84
2023/03/31 10:19:47;;;;;;;8.40;5.25;;;;;;;20.35;32.00;98985.25;5072048;28;20120;-87
2023/03/31 10:22:27;;;;;;;11.45;6.68;;;;;;;20.89;31.55;99001.19;5086475;28;20023;-84
2023/03/31 10:24:53;;;;;;;12.07;7.25;;;;;;;20.81;31.65;98997.59;5088157;28;20096;-84
2023/03/31 10:27:21;;;;;;;20.23;9.30;;;;;;;20.89;31.55;99002.00;5082321;28;20035;-84
2023/03/31 10:29:50;;;;;;;20.65;9.25;;;;;;;21.10;31.93;99003.03;5078452;28;20483;-85
2023/03/31 10:32:34;;;;;;;11.20;7.60;;;;;;;20.69;31.86;98975.31;5103468;28;20031;-84
2023/03/31 10:35:29;;;;;;;14.48;6.20;;;;;;;21.00;32.66;98984.06;5083549;28;20486;-85
2023/03/31 10:38:03;;;;;;;9.40;5.43;;;;;;;20.74;31.92;98975.69;5084888;28;20028;-84
2023/03/31 10:40:31;;;;;;;10.57;4.97;;;;;;;20.82;32.03;98973.63;5092438;28;20132;-83
2023/03/31 10:43:20;;;;;;;8.82;5.55;;;;;;;21.01;31.88;98974.31;5088853;28;20080;-84
2023/03/31 10:45:51;;;;;;;11.15;5.22;;;;;;;21.13;31.52;98964.44;5103688;28;20028;-83
2023/03/31 10:48:23;;;;;;;7.70;5.78;;;;;;;21.40;32.88;98961.75;5091322;28;20016;-85
2023/03/31 10:50:49;;;;;;;10.77;6.05;;;;;;;21.52;31.45;98968.16;5090522;28;20062;-84
2023/03/31 10:53:17;;;;;;;7.22;5.18;;;;;;;21.16;32.08;98961.56;5091137;28;20055;-84
2023/03/31 10:55:51;;;;;;;11.60;6.53;;;;;;;20.99;31.14;98954.81;5077476;28;20027;-83
2023/03/31 10:58:43;;;;;;;16.23;6.30;;;;;;;21.52;30.61;98951.88;5078185;28;20028;-83
2023/03/31 11:01:22;;;;;;;8.95;5.78;;;;;;;21.58;29.92;98940.84;5067831;28;20051;-83
2023/03/31 11:04:26;;;;;;;8.27;5.60;;;;;;;21.92;30.09;98931.53;5087947;28;20512;-83
2023/03/31 11:07:04;;;;;;;11.00;5.85;;;;;;;22.08;30.06;98915.84;5088303;28;20076;-83
2023/03/31 11:09:48;;;;;;;8.68;5.95;;;;;;;22.33;29.55;98915.53;5095062;28;20023;-83
2023/03/31 11:12:50;;;;;;;7.22;5.15;;;;;;;22.37;30.49;98909.78;5090018;28;20028;-83
2023/03/31 11:15:19;;;;;;;7.35;5.15;;;;;;;21.87;29.24;98906.38;5090387;28;20173;-83
2023/03/31 11:18:10;;;;;;;8.85;5.35;;;;;;;22.00;29.22;98890.34;5092976;28;20049;-84
2023/03/31 11:20:48;;;;;;;11.00;5.13;;;;;;;21.92;28.98;98890.88;5108871;27;20015;-83
2023/03/31 11:23:38;;;;;;;12.32;5.88;;;;;;;22.32;28.93;98879.72;5107478;28;20024;-83
2023/03/31 11:26:33;;;;;;;9.60;5.45;;;;;;;22.36;28.38;98871.13;5107900;28;20122;-83
2023/03/31 11:29:01;;;;;;;9.30;5.07;;;;;;;22.53;28.89;98875.75;5093811;28;20034;-83
2023/03/31 11:31:49;;;;;;;14.45;5.40;;;;;;;22.78;28.71;98831.00;5093644;28;20446;-83
2023/03/31 11:34:33;;;;;;;7.57;4.38;;;;;;;22.68;27.63;98862.09;5086686;28;20027;-84
2023/03/31 11:37:35;;;;;;;16.25;4.93;;;;;;;22.44;27.41;98853.50;5093146;28;20054;-83
2023/03/31 11:40:18;;;;;;;13.40;3.97;;;;;;;22.51;26.97;98846.91;5092764;28;20409;-85
2023/03/31 11:43:05;;;;;;;6.85;3.45;;;;;;;22.34;27.28;98845.91;5105158;28;20390;-84
2023/03/31 11:45:38;;;;;;;5.50;3.58;;;;;;;22.64;27.86;98841.41;5088011;28;20059;-85
2023/03/31 11:48:16;;;;;;;11.60;4.85;;;;;;;22.82;28.09;98849.66;5085589;28;20049;-83